Time;durP1;ratioP1;P1;durP2;ratioP2;P2;SDS_P1;SDS_P2;PMS_P1;PMS_P2;Temp;Humidity;BMP_temperature;BMP_pressure;BME280_temperature;BME280_humidity;BME280_pressure;Samples;Min_cycle;Max_cycle;Signal;HPM_P1;HPM_P2
2023/02/03 00:01:18;;;;;;;8.93;3.53;;;;;;;2.96;96.17;100998.75;5106051;28;20152;-73
2023/02/03 00:03:44;;;;;;;7.68;3.55;;;;;;;2.94;95.67;100996.16;5101780;28;20023;-73
2023/02/03 00:06:09;;;;;;;10.30;3.90;;;;;;;3.03;95.88;101000.19;5103776;28;20459;-73
2023/02/03 00:08:37;;;;;;;9.30;3.53;;;;;;;3.06;95.50;100997.38;5105264;28;20047;-73
2023/02/03 00:11:03;;;;;;;6.78;3.30;;;;;;;2.99;95.41;101002.09;5080541;28;20035;-73
2023/02/03 00:13:28;;;;;;;7.90;3.67;;;;;;;3.02;95.31;101006.38;5099613;28;20043;-73
2023/02/03 00:15:54;;;;;;;9.48;3.78;;;;;;;3.01;95.78;101005.53;5085320;28;20027;-73
2023/02/03 00:18:20;;;;;;;4.63;3.33;;;;;;;3.02;95.14;101012.56;5099630;28;20364;-73
2023/02/03 00:20:45;;;;;;;7.22;3.78;;;;;;;2.90;95.68;100999.84;5085691;28;20023;-73
2023/02/03 00:23:11;;;;;;;7.05;3.60;;;;;;;2.96;95.48;101015.47;5104297;28;20092;-73
2023/02/03 00:25:38;;;;;;;7.90;3.55;;;;;;;2.90;95.21;101010.44;5082884;28;20031;-73
2023/02/03 00:28:04;;;;;;;7.38;3.75;;;;;;;2.88;95.74;101022.94;5098635;28;20027;-73
2023/02/03 00:30:30;;;;;;;7.03;3.20;;;;;;;2.84;95.75;101015.19;5098149;27;20039;-73
2023/02/03 00:32:56;;;;;;;9.80;3.70;;;;;;;2.85;95.88;101022.19;5101075;27;20189;-73
2023/02/03 00:35:21;;;;;;;7.55;3.45;;;;;;;2.88;95.21;101032.66;5098667;27;20111;-73
2023/02/03 00:37:54;;;;;;;11.38;3.92;;;;;;;2.86;95.15;101037.16;5100805;28;20065;-72
2023/02/03 00:40:21;;;;;;;6.55;3.55;;;;;;;2.94;94.58;101041.19;5098047;28;20043;-72
2023/02/03 00:42:46;;;;;;;7.22;3.70;;;;;;;2.95;94.21;101049.97;5104448;28;20031;-73
2023/02/03 00:45:11;;;;;;;8.00;3.53;;;;;;;2.80;94.11;101034.81;5096711;28;20084;-73
2023/02/03 00:47:37;;;;;;;7.80;3.42;;;;;;;2.84;94.10;101045.16;5093992;28;20020;-73
2023/02/03 00:50:04;;;;;;;10.65;3.50;;;;;;;2.81;94.01;101047.97;5083584;28;20134;-73
2023/02/03 00:52:30;;;;;;;7.13;3.47;;;;;;;2.75;93.85;101042.06;5102557;28;20046;-73
2023/02/03 00:54:55;;;;;;;5.20;3.08;;;;;;;2.81;93.44;101033.88;5101828;28;20039;-73
2023/02/03 00:57:20;;;;;;;7.15;3.85;;;;;;;2.74;93.94;101048.31;5098346;28;20028;-73
2023/02/03 00:59:46;;;;;;;6.78;3.35;;;;;;;2.85;93.68;101041.59;5101887;28;20080;-73
2023/02/03 01:02:11;;;;;;;8.07;3.88;;;;;;;2.95;91.40;101034.97;5099502;28;20299;-73
2023/02/03 01:04:37;;;;;;;7.50;3.10;;;;;;;2.94;91.29;101038.56;5098877;28;20023;-73
2023/02/03 01:07:02;;;;;;;10.20;3.15;;;;;;;2.97;91.09;101035.72;5098768;28;20020;-73
2023/02/03 01:09:28;;;;;;;8.15;3.45;;;;;;;2.95;91.28;101049.97;5100244;28;20039;-73
2023/02/03 01:11:53;;;;;;;8.07;3.63;;;;;;;2.92;91.43;101055.41;5098354;27;20031;-73
2023/02/03 01:14:19;;;;;;;6.43;3.05;;;;;;;2.82;91.82;101049.69;5096762;28;20549;-73
2023/02/03 01:16:44;;;;;;;11.07;3.42;;;;;;;2.89;91.16;101050.25;5096711;27;20053;-73
2023/02/03 01:19:10;;;;;;;6.25;3.00;;;;;;;2.82;91.35;101054.97;5096620;28;20132;-73
2023/02/03 01:21:35;;;;;;;4.93;3.10;;;;;;;2.81;91.25;101055.06;5095533;27;20093;-73
2023/02/03 01:24:01;;;;;;;7.90;3.38;;;;;;;2.82;91.72;101060.28;5096914;28;20038;-74
2023/02/03 01:26:27;;;;;;;7.35;3.60;;;;;;;2.87;90.67;101058.28;5094484;28;20031;-73
2023/02/03 01:28:54;;;;;;;6.10;2.78;;;;;;;2.90;90.06;101058.13;5077144;28;20038;-73
2023/02/03 01:31:29;;;;;;;8.65;3.22;;;;;;;2.76;90.85;101070.28;5078449;28;20065;-73
2023/02/03 01:33:55;;;;;;;8.13;3.22;;;;;;;2.83;90.35;101061.16;5083254;27;20774;-72
2023/02/03 01:36:23;;;;;;;5.05;2.85;;;;;;;2.69;90.94;101069.69;5089275;27;20024;-72
2023/02/03 01:38:49;;;;;;;7.07;3.00;;;;;;;2.64;90.85;101062.88;5100239;28;20019;-73
2023/02/03 01:41:20;;;;;;;6.90;2.70;;;;;;;2.74;89.75;101077.44;5098632;27;20123;-73
2023/02/03 01:43:48;;;;;;;5.50;2.75;;;;;;;2.66;90.55;101080.41;5092656;27;20036;-74
2023/02/03 01:46:19;;;;;;;5.10;3.10;;;;;;;2.70;89.99;101071.41;5077158;28;20034;-73
2023/02/03 01:48:45;;;;;;;5.53;2.85;;;;;;;2.75;90.13;101066.78;5095758;28;20032;-73
2023/02/03 01:51:10;;;;;;;7.40;2.85;;;;;;;2.69;90.04;101064.41;5094676;27;20042;-73
2023/02/03 01:53:38;;;;;;;8.50;3.47;;;;;;;2.67;90.25;101081.28;5100720;28;20016;-73
2023/02/03 01:56:05;;;;;;;6.65;2.90;;;;;;;2.63;90.33;101069.09;5094431;28;20035;-73
2023/02/03 01:58:35;;;;;;;9.85;3.00;;;;;;;2.60;90.21;101079.81;5096357;28;20119;-73
2023/02/03 02:01:00;;;;;;;10.35;3.00;;;;;;;2.70;89.46;101074.06;5097707;27;20028;-73
2023/02/03 02:03:35;;;;;;;5.25;3.03;;;;;;;2.59;89.82;101086.03;5095104;28;20054;-73
2023/02/03 02:06:06;;;;;;;5.97;2.97;;;;;;;2.50;90.15;101073.19;5097763;28;20498;-73
2023/02/03 02:08:32;;;;;;;9.43;3.83;;;;;;;2.57;89.63;101093.22;5092785;27;20039;-73
2023/02/03 02:11:02;;;;;;;7.38;3.50;;;;;;;2.56;89.29;101096.75;5083898;28;20031;-73
2023/02/03 02:13:30;;;;;;;5.88;3.40;;;;;;;2.35;89.96;101072.94;5081638;28;20601;-73
2023/02/03 02:15:55;;;;;;;6.15;3.10;;;;;;;2.66;88.32;101100.72;5098045;27;20060;-73
2023/02/03 02:18:59;;;;;;;8.63;3.17;;;;;;;2.49;88.95;101104.13;5095991;28;20032;-73
2023/02/03 02:21:43;;;;;;;8.88;2.80;;;;;;;2.47;88.78;101107.72;5097349;28;20059;-73
2023/02/03 02:24:14;;;;;;;;;;;;;;;2.39;89.38;101108.09;5082189;28;20044;-73
2023/02/03 02:27:01;;;;;;;12.60;3.50;;;;;;;2.58;87.46;101121.41;5083240;28;20375;-73
2023/02/03 02:29:36;;;;;;;6.38;3.55;;;;;;;2.57;86.79;101117.88;5095101;27;20028;-73
2023/02/03 02:32:01;;;;;;;8.10;3.40;;;;;;;2.58;86.04;101124.03;5096724;28;20027;-73
2023/02/03 02:34:45;;;;;;;7.03;3.08;;;;;;;2.53;86.65;101115.41;5092051;28;20035;-73
2023/02/03 02:37:29;;;;;;;;;;;;;;;2.54;86.35;101119.81;5098120;28;20480;-73
2023/02/03 02:40:14;;;;;;;5.53;3.03;;;;;;;2.39;87.14;101114.22;5091372;28;20009;-73
2023/02/03 02:43:03;;;;;;;7.95;2.90;;;;;;;2.31;86.76;101116.34;5097417;28;20051;-73
2023/02/03 02:45:51;;;;;;;5.82;2.22;;;;;;;2.28;86.85;101132.34;5096212;28;21840;-73
2023/02/03 02:48:31;;;;;;;10.02;2.25;;;;;;;2.22;87.84;101131.72;5098446;28;20084;-73
2023/02/03 02:50:59;;;;;;;7.75;3.20;;;;;;;2.19;87.44;101122.13;5096292;28;20024;-73
2023/02/03 02:53:31;;;;;;;7.85;3.15;;;;;;;2.14;88.11;101133.81;5099592;28;21844;-73
2023/02/03 02:55:58;;;;;;;9.45;3.20;;;;;;;2.01;88.57;101127.31;5098992;28;20031;-73
2023/02/03 02:58:26;;;;;;;7.93;2.78;;;;;;;2.24;87.91;101128.09;5094633;28;20655;-73
2023/02/03 03:00:51;;;;;;;4.88;2.83;;;;;;;2.21;87.45;101119.41;5091925;28;20028;-72
2023/02/03 03:03:20;;;;;;;6.65;2.90;;;;;;;2.19;87.19;101118.59;5092596;28;20039;-72
2023/02/03 03:05:51;;;;;;;4.75;2.88;;;;;;;2.14;87.38;101117.94;5100296;28;20016;-73
2023/02/03 03:08:34;;;;;;;11.95;2.72;;;;;;;2.05;88.30;101120.97;5094076;28;20031;-73
2023/02/03 03:11:01;;;;;;;5.22;2.95;;;;;;;2.04;88.49;101127.19;5097491;28;20563;-73
2023/02/03 03:13:31;;;;;;;7.80;2.83;;;;;;;1.94;88.93;101126.66;5095618;28;20131;-73
2023/02/03 03:15:58;;;;;;;6.53;2.55;;;;;;;1.94;89.51;101142.53;5090632;28;20024;-73
2023/02/03 03:18:31;;;;;;;6.05;2.92;;;;;;;1.90;89.15;101122.44;5095455;28;20059;-73
2023/02/03 03:21:04;;;;;;;6.95;2.70;;;;;;;1.90;89.21;101125.06;5080943;28;20168;-73
2023/02/03 03:23:38;;;;;;;9.13;3.22;;;;;;;1.82;90.17;101140.41;5094382;28;20341;-73
2023/02/03 03:26:11;;;;;;;7.72;3.22;;;;;;;1.72;90.09;101136.41;5079165;28;20039;-73
2023/02/03 03:28:43;;;;;;;6.43;3.10;;;;;;;1.68;90.94;101132.13;5099467;28;20039;-73
2023/02/03 03:31:08;;;;;;;9.40;3.17;;;;;;;1.57;91.28;101117.59;5093855;28;22010;-73
2023/02/03 03:33:34;;;;;;;6.32;4.00;;;;;;;1.60;91.21;101130.69;5094556;28;20045;-73
2023/02/03 03:36:02;;;;;;;9.10;3.40;;;;;;;1.51;92.04;101136.31;5096260;28;20023;-73
2023/02/03 03:38:48;;;;;;;6.60;3.30;;;;;;;1.44;92.47;101142.75;5093538;28;20433;-73
2023/02/03 03:41:25;;;;;;;7.68;3.85;;;;;;;1.51;92.12;101144.25;5093136;28;20027;-73
2023/02/03 03:43:55;;;;;;;12.57;4.32;;;;;;;1.46;92.00;101141.81;5078922;28;20032;-73
2023/02/03 03:46:27;;;;;;;6.32;3.33;;;;;;;1.41;92.23;101141.09;5097857;27;20038;-73
2023/02/03 03:49:01;;;;;;;6.75;3.20;;;;;;;1.29;92.03;101125.69;5086989;27;20112;-73
2023/02/03 03:51:53;;;;;;;5.63;3.00;;;;;;;1.36;92.63;101132.47;5101316;28;20016;-72
2023/02/03 03:54:22;;;;;;;6.60;3.00;;;;;;;1.15;92.40;101113.91;5098033;27;20686;-73
2023/02/03 03:57:04;;;;;;;9.25;2.95;;;;;;;1.25;92.23;101134.66;5100843;27;20039;-72
2023/02/03 03:59:34;;;;;;;4.78;2.63;;;;;;;1.38;90.96;101135.06;5097240;28;20035;-73
2023/02/03 04:02:03;;;;;;;6.35;2.90;;;;;;;1.33;90.64;101129.09;5097649;28;20031;-73
2023/02/03 04:04:31;;;;;;;4.18;2.70;;;;;;;1.39;89.82;101134.16;5098928;27;20024;-73
2023/02/03 04:06:56;;;;;;;5.03;2.90;;;;;;;1.32;89.45;101125.59;5099965;27;20437;-73
2023/02/03 04:09:22;;;;;;;5.10;2.65;;;;;;;1.40;89.51;101143.81;5099044;27;20028;-73
2023/02/03 04:12:00;;;;;;;5.70;2.58;;;;;;;1.41;88.88;101141.09;5103084;28;20635;-73
2023/02/03 04:14:26;;;;;;;8.27;3.20;;;;;;;1.28;89.71;101139.84;5098237;27;20043;-72
2023/02/03 04:16:51;;;;;;;7.30;3.22;;;;;;;1.20;89.38;101141.91;5095180;28;20039;-73
2023/02/03 04:19:17;;;;;;;7.47;3.08;;;;;;;1.25;89.57;101150.53;5095794;27;20105;-73
2023/02/03 04:21:42;;;;;;;12.93;3.50;;;;;;;1.22;89.81;101149.75;5101207;28;20023;-73
2023/02/03 04:24:08;;;;;;;7.68;3.35;;;;;;;1.15;88.83;101117.44;5099204;28;20085;-67
2023/02/03 04:26:33;;;;;;;8.73;3.10;;;;;;;1.12;88.82;101124.59;5095793;28;20480;-67
2023/02/03 04:28:59;;;;;;;4.68;2.60;;;;;;;1.07;89.36;101123.91;5099722;27;20023;-67
2023/02/03 04:31:24;;;;;;;6.10;2.95;;;;;;;1.06;89.98;101125.69;5082164;28;20063;-67
2023/02/03 04:33:50;;;;;;;6.28;2.92;;;;;;;0.91;90.75;101106.91;5075130;28;20039;-67
2023/02/03 04:36:15;;;;;;;6.53;2.63;;;;;;;1.10;90.37;101135.22;5099787;27;20034;-67
2023/02/03 04:38:40;;;;;;;5.25;3.00;;;;;;;1.04;90.19;101135.47;5096893;28;20020;-67
2023/02/03 04:41:06;;;;;;;7.97;3.15;;;;;;;1.16;90.35;101150.84;5100596;28;20026;-67
2023/02/03 04:43:31;;;;;;;10.32;4.00;;;;;;;1.23;90.24;101135.66;5096017;27;20028;-67
2023/02/03 04:46:00;;;;;;;8.63;3.97;;;;;;;1.36;89.63;101150.97;5095511;28;20031;-67
2023/02/03 04:48:26;;;;;;;8.90;3.83;;;;;;;1.24;89.71;101127.66;5093948;28;20043;-67
2023/02/03 04:50:51;;;;;;;7.43;3.45;;;;;;;1.19;89.57;101141.97;5092063;28;20479;-67
2023/02/03 04:53:17;;;;;;;7.90;3.58;;;;;;;1.20;90.60;101148.97;5099670;28;20039;-67
2023/02/03 04:55:47;;;;;;;6.88;4.07;;;;;;;1.10;91.41;101150.22;5103912;28;20046;-67
2023/02/03 04:58:12;;;;;;;10.77;3.67;;;;;;;1.12;91.54;101145.72;5102974;28;20114;-66
2023/02/03 05:00:38;;;;;;;9.02;4.20;;;;;;;0.85;92.09;101123.84;5081644;28;20111;-66
2023/02/03 05:03:03;;;;;;;7.00;3.50;;;;;;;1.08;92.56;101147.63;5078178;28;20027;-67
2023/02/03 05:05:29;;;;;;;6.00;3.45;;;;;;;1.13;93.16;101168.59;5078628;28;20072;-67
2023/02/03 05:07:54;;;;;;;9.00;3.80;;;;;;;0.96;93.83;101137.50;5094144;27;20028;-66
2023/02/03 05:10:20;;;;;;;6.32;3.90;;;;;;;1.12;94.06;101148.38;5101776;28;20031;-66
2023/02/03 05:12:45;;;;;;;7.32;4.35;;;;;;;1.09;94.22;101141.44;5089001;27;20032;-66
2023/02/03 05:15:11;;;;;;;7.50;4.00;;;;;;;1.21;92.74;101154.19;5092810;27;20180;-65
2023/02/03 05:17:38;;;;;;;8.55;4.25;;;;;;;0.95;94.15;101109.38;5098257;28;20020;-66
2023/02/03 05:20:05;;;;;;;6.95;3.70;;;;;;;1.11;94.59;101138.72;5093548;27;20020;-66
2023/02/03 05:22:30;;;;;;;10.57;4.68;;;;;;;1.21;93.24;101142.75;5097777;28;20145;-66
2023/02/03 05:24:56;;;;;;;7.68;4.00;;;;;;;1.13;91.75;101113.13;5097913;27;20114;-66
2023/02/03 05:27:21;;;;;;;8.80;4.45;;;;;;;1.11;89.87;101083.25;5096788;27;20049;-66
2023/02/03 05:29:47;;;;;;;10.40;4.28;;;;;;;1.18;90.27;101100.59;5093811;28;20023;-66
2023/02/03 05:32:12;;;;;;;10.05;3.90;;;;;;;1.18;89.59;101109.41;5075636;28;20070;-66
2023/02/03 05:34:38;;;;;;;8.18;4.40;;;;;;;1.29;89.73;101131.00;5096969;27;20039;-66
2023/02/03 05:37:03;;;;;;;8.85;3.67;;;;;;;1.08;89.34;101109.78;5099723;28;20034;-66
2023/02/03 05:39:29;;;;;;;5.25;3.35;;;;;;;1.18;90.13;101141.09;5098370;27;20031;-66
2023/02/03 05:41:54;;;;;;;7.28;3.95;;;;;;;1.10;90.70;101134.38;5068262;28;20027;-65
2023/02/03 05:44:22;;;;;;;8.85;4.53;;;;;;;1.18;89.98;101129.66;5092754;28;20091;-66
2023/02/03 05:46:49;;;;;;;9.77;4.35;;;;;;;1.19;89.79;101134.88;5087158;28;20065;-66
2023/02/03 05:49:15;;;;;;;7.60;4.00;;;;;;;1.31;89.23;101142.38;5087336;27;20027;-66
2023/02/03 05:51:40;;;;;;;7.40;3.50;;;;;;;1.09;89.05;101117.66;5072444;28;20384;-66
2023/02/03 05:54:06;;;;;;;9.45;4.03;;;;;;;1.07;89.66;101137.13;5097594;28;20072;-66
2023/02/03 05:56:32;;;;;;;5.70;3.63;;;;;;;0.86;90.67;101122.03;5094553;28;20092;-66
2023/02/03 05:58:57;;;;;;;7.53;4.25;;;;;;;1.08;91.17;101139.72;5090685;28;20463;-66
2023/02/03 06:01:23;;;;;;;7.88;3.92;;;;;;;1.18;90.50;101149.03;5082663;28;20051;-66
2023/02/03 06:03:48;;;;;;;8.48;4.10;;;;;;;1.20;90.05;101151.63;5090758;28;20032;-66
2023/02/03 06:06:15;;;;;;;11.43;4.00;;;;;;;1.26;90.11;101162.81;5101840;28;20031;-66
2023/02/03 06:08:41;;;;;;;10.27;3.90;;;;;;;1.29;90.77;101173.25;5097790;27;20467;-66
2023/02/03 06:11:07;;;;;;;15.18;4.60;;;;;;;1.20;91.75;101180.69;5094135;27;20028;-66
2023/02/03 06:13:32;;;;;;;9.50;3.90;;;;;;;0.98;91.12;101151.53;5078204;28;21002;-66
2023/02/03 06:15:57;;;;;;;10.35;4.40;;;;;;;1.07;90.38;101161.78;5078934;28;20032;-67
2023/02/03 06:18:23;;;;;;;9.10;4.28;;;;;;;1.22;89.47;101187.63;5089877;28;20039;-66
2023/02/03 06:20:49;;;;;;;11.65;4.95;;;;;;;1.26;88.80;101177.81;5084039;27;20016;-66
2023/02/03 06:23:16;;;;;;;9.90;5.20;;;;;;;1.20;88.51;101170.09;5087111;28;20184;-66
2023/02/03 06:25:42;;;;;;;11.07;5.57;;;;;;;1.36;89.27;101185.31;5091960;28;20391;-66
2023/02/03 06:28:07;;;;;;;10.52;5.22;;;;;;;1.19;89.60;101166.59;5105377;27;20032;-67
2023/02/03 06:30:33;;;;;;;10.90;5.65;;;;;;;1.37;89.44;101175.63;5086543;28;20047;-66
2023/02/03 06:32:58;;;;;;;8.93;4.82;;;;;;;1.27;90.14;101168.97;5084413;28;20028;-66
2023/02/03 06:35:24;;;;;;;9.73;5.20;;;;;;;1.32;90.42;101178.44;5089863;27;20035;-66
2023/02/03 06:37:49;;;;;;;11.98;5.13;;;;;;;1.39;90.59;101201.06;5095550;28;20054;-66
2023/02/03 06:40:15;;;;;;;17.08;8.43;;;;;;;1.17;91.13;101176.38;5091355;28;20176;-66
2023/02/03 06:42:44;;;;;;;14.02;6.93;;;;;;;1.21;92.02;101188.53;5072231;28;20050;-72
2023/02/03 06:45:09;;;;;;;14.75;6.25;;;;;;;1.25;92.33;101202.50;5096084;28;20024;-72
2023/02/03 06:47:39;;;;;;;12.57;6.45;;;;;;;1.12;91.98;101180.06;5078347;28;20517;-72
2023/02/03 06:50:04;;;;;;;11.68;7.22;;;;;;;1.28;92.28;101210.31;5093855;28;20023;-72
2023/02/03 06:52:30;;;;;;;13.93;6.80;;;;;;;1.41;91.76;101208.94;5092693;28;20110;-72
2023/02/03 06:54:55;;;;;;;10.25;5.82;;;;;;;1.52;91.02;101209.44;5085890;28;20522;-72
2023/02/03 06:57:21;;;;;;;16.33;7.82;;;;;;;1.61;90.54;101220.53;5091559;28;20690;-73
2023/02/03 06:59:46;;;;;;;14.05;6.50;;;;;;;1.66;90.65;101217.72;5095804;28;20034;-73
2023/02/03 07:02:12;;;;;;;11.85;6.90;;;;;;;1.70;90.85;101227.25;5083617;28;20555;-71
2023/02/03 07:04:37;;;;;;;11.73;7.22;;;;;;;1.47;91.36;101201.69;5083930;28;20032;-72
2023/02/03 07:07:03;;;;;;;14.13;6.78;;;;;;;1.65;91.86;101227.41;5098716;28;20044;-71
2023/02/03 07:09:29;;;;;;;11.10;6.35;;;;;;;1.68;91.46;101224.66;5100943;28;20027;-67
2023/02/03 07:11:54;;;;;;;14.63;7.57;;;;;;;1.64;91.88;101223.06;5099490;28;20023;-66
2023/02/03 07:14:19;;;;;;;20.10;9.45;;;;;;;1.50;91.37;101176.91;5095158;28;20048;-66
2023/02/03 07:16:45;;;;;;;17.90;8.65;;;;;;;1.56;91.85;101185.47;5101886;28;20042;-67
2023/02/03 07:19:10;;;;;;;15.07;6.72;;;;;;;1.49;92.14;101173.38;5101219;28;20077;-67
2023/02/03 07:21:36;;;;;;;14.98;6.97;;;;;;;1.62;91.71;101200.25;5083696;28;20056;-67
2023/02/03 07:24:02;;;;;;;13.50;7.00;;;;;;;1.45;91.02;101147.16;5099893;28;20027;-67
2023/02/03 07:26:27;;;;;;;19.20;7.32;;;;;;;1.78;91.28;101209.31;5100655;28;20032;-67
2023/02/03 07:28:53;;;;;;;12.43;6.47;;;;;;;1.79;91.29;101201.34;5101963;28;20038;-67
2023/02/03 07:31:19;;;;;;;18.58;9.60;;;;;;;1.55;90.91;101162.59;5084010;28;20126;-67
2023/02/03 07:33:44;;;;;;;15.60;8.13;;;;;;;1.93;90.36;101214.00;5101192;28;22053;-67
2023/02/03 07:36:10;;;;;;;21.85;10.75;;;;;;;1.90;88.98;101191.19;5091483;28;20487;-67
2023/02/03 07:38:39;;;;;;;14.07;8.70;;;;;;;1.98;89.20;101206.78;5085610;28;20032;-67
2023/02/03 07:41:05;;;;;;;15.20;7.53;;;;;;;2.02;89.42;101197.78;5087893;28;20024;-67
2023/02/03 07:43:31;;;;;;;17.98;7.68;;;;;;;1.97;88.52;101171.53;5100642;28;20067;-67
2023/02/03 07:45:56;;;;;;;20.60;9.50;;;;;;;2.15;88.67;101210.50;5103976;28;20055;-67
2023/02/03 07:48:22;;;;;;;26.65;10.82;;;;;;;1.94;89.65;101182.22;5103971;28;20042;-66
2023/02/03 07:50:47;;;;;;;19.33;10.10;;;;;;;1.88;89.86;101168.38;5105822;28;20584;-67
2023/02/03 07:53:14;;;;;;;19.17;9.10;;;;;;;1.89;90.29;101183.31;5078621;27;20130;-67
2023/02/03 07:55:39;;;;;;;12.75;6.20;;;;;;;1.99;89.98;101182.91;5097420;28;20694;-67
2023/02/03 07:58:06;;;;;;;12.95;6.60;;;;;;;2.12;89.64;101186.78;5080059;28;20063;-67
2023/02/03 08:00:31;;;;;;;13.10;6.68;;;;;;;2.04;89.64;101185.38;5103846;28;20020;-67
2023/02/03 08:02:57;;;;;;;12.70;6.45;;;;;;;2.18;89.15;101191.84;5097322;28;20077;-67
2023/02/03 08:05:22;;;;;;;12.43;6.28;;;;;;;1.98;89.69;101153.88;5102228;28;20039;-67
2023/02/03 08:07:48;;;;;;;14.88;6.93;;;;;;;2.16;88.37;101158.44;5097686;28;20040;-67
2023/02/03 08:10:14;;;;;;;13.60;6.88;;;;;;;2.26;88.20;101181.81;5092324;28;20031;-68
2023/02/03 08:12:45;;;;;;;19.73;6.90;;;;;;;2.41;87.72;101200.66;5101016;28;20035;-67
2023/02/03 08:15:11;;;;;;;18.08;7.93;;;;;;;2.34;88.22;101190.31;5104011;28;20043;-68
2023/02/03 08:17:39;;;;;;;13.25;7.35;;;;;;;2.43;88.02;101194.38;5098126;28;20456;-67
2023/02/03 08:20:05;;;;;;;13.00;6.75;;;;;;;2.48;88.58;101194.19;5100596;28;20030;-67
2023/02/03 08:22:31;;;;;;;14.10;7.15;;;;;;;2.54;88.31;101212.47;5081810;28;20055;-68
2023/02/03 08:24:56;;;;;;;14.95;6.88;;;;;;;2.32;89.00;101186.84;5098902;28;20085;-68
2023/02/03 08:27:23;;;;;;;11.75;6.05;;;;;;;2.60;88.12;101206.91;5098110;28;20639;-68
2023/02/03 08:29:48;;;;;;;9.85;6.22;;;;;;;2.75;86.76;101209.81;5098473;28;20055;-68
2023/02/03 08:32:20;;;;;;;12.43;6.38;;;;;;;2.83;86.77;101228.03;5085324;28;20215;-67
2023/02/03 08:34:46;;;;;;;12.77;5.93;;;;;;;2.57;87.21;101204.41;5103893;28;20077;-67
2023/02/03 08:37:13;;;;;;;11.20;5.70;;;;;;;2.61;87.75;101214.78;5101756;28;20157;-67
2023/02/03 08:39:38;;;;;;;12.40;5.63;;;;;;;2.71;88.23;101232.00;5088052;28;20040;-68
2023/02/03 08:42:05;;;;;;;13.43;5.03;;;;;;;2.70;87.77;101238.25;5101517;28;20031;-67
2023/02/03 08:44:31;;;;;;;9.65;5.18;;;;;;;2.62;87.98;101231.53;5107681;27;20028;-67
2023/02/03 08:46:57;;;;;;;15.50;5.97;;;;;;;2.36;87.36;101174.38;5101835;28;20024;-68
2023/02/03 08:49:25;;;;;;;9.35;4.97;;;;;;;2.66;88.63;101247.25;5105353;28;20491;-67
2023/02/03 08:51:51;;;;;;;10.18;5.82;;;;;;;2.59;88.62;101236.97;5082501;28;20455;-67
2023/02/03 08:54:17;;;;;;;12.38;6.20;;;;;;;2.67;87.91;101232.22;5086493;28;20034;-67
2023/02/03 08:56:43;;;;;;;10.68;5.22;;;;;;;2.68;86.79;101221.56;5106498;28;20375;-68
2023/02/03 08:59:08;;;;;;;11.75;5.00;;;;;;;2.73;87.28;101224.00;5087362;28;20023;-67
2023/02/03 09:01:34;;;;;;;12.32;5.00;;;;;;;2.93;85.51;101232.00;5099783;28;20537;-67
2023/02/03 09:04:03;;;;;;;9.70;4.97;;;;;;;2.77;85.32;101196.50;5101309;28;20027;-68
2023/02/03 09:06:29;;;;;;;12.35;5.15;;;;;;;2.90;86.27;101232.13;5080820;28;20027;-67
2023/02/03 09:08:56;;;;;;;10.60;4.68;;;;;;;3.01;85.52;101235.19;5086845;28;20080;-67
2023/02/03 09:11:21;;;;;;;9.15;4.70;;;;;;;3.03;85.30;101241.28;5087858;28;20027;-67
2023/02/03 09:13:47;;;;;;;12.93;6.10;;;;;;;2.91;85.34;101217.97;5104782;28;20043;-67
2023/02/03 09:16:17;;;;;;;10.23;4.95;;;;;;;2.92;86.10;101236.44;5099261;28;20055;-67
2023/02/03 09:18:44;;;;;;;12.90;5.07;;;;;;;3.03;85.74;101239.47;5106540;28;20212;-67
2023/02/03 09:21:10;;;;;;;12.32;5.28;;;;;;;2.96;84.76;101232.72;5102647;28;20752;-67
2023/02/03 09:23:36;;;;;;;13.13;5.30;;;;;;;2.91;84.51;101213.53;5106443;28;20035;-67
2023/02/03 09:26:07;;;;;;;11.07;5.13;;;;;;;3.11;83.31;101221.47;5079899;28;20031;-68
2023/02/03 09:28:33;;;;;;;15.25;5.97;;;;;;;3.25;83.02;101239.41;5096678;28;20035;-67
2023/02/03 09:31:04;;;;;;;11.75;5.82;;;;;;;3.31;82.73;101225.91;5099659;28;20024;-67
2023/02/03 09:33:29;;;;;;;12.52;5.63;;;;;;;3.22;82.65;101221.03;5084180;28;20156;-68
2023/02/03 09:35:56;;;;;;;14.45;6.15;;;;;;;3.18;82.88;101214.13;5102214;27;20119;-67
2023/02/03 09:38:22;;;;;;;15.70;6.38;;;;;;;3.32;81.95;101201.97;5098317;28;20022;-67
2023/02/03 09:40:59;;;;;;;15.27;6.07;;;;;;;3.49;80.37;101201.25;5086151;28;20027;-67
2023/02/03 09:43:27;;;;;;;13.02;6.15;;;;;;;3.53;80.42;101197.53;5099532;28;20743;-67
2023/02/03 09:45:53;;;;;;;11.02;6.38;;;;;;;3.47;81.28;101197.78;5084756;28;21031;-67
2023/02/03 09:48:27;;;;;;;12.70;6.70;;;;;;;3.28;81.39;101165.06;5105753;28;20031;-67
2023/02/03 09:50:53;;;;;;;12.10;5.75;;;;;;;3.47;80.68;101166.84;5104510;28;20027;-67
2023/02/03 09:53:28;;;;;;;11.98;6.63;;;;;;;3.48;80.92;101181.81;5085216;28;20505;-67
2023/02/03 09:55:54;;;;;;;17.27;6.82;;;;;;;3.52;80.82;101161.34;5102881;28;20032;-68
2023/02/03 09:58:21;;;;;;;16.15;5.68;;;;;;;3.59;79.79;101157.47;5101552;28;20099;-67
2023/02/03 10:00:52;;;;;;;14.07;6.15;;;;;;;3.59;81.40;101165.41;5105618;28;20024;-67
2023/02/03 10:03:27;;;;;;;15.68;6.47;;;;;;;3.74;80.17;101170.03;5097220;28;20062;-67
2023/02/03 10:06:23;;;;;;;12.15;6.28;;;;;;;3.88;80.21;101175.53;5102576;28;20115;-67
2023/02/03 10:09:18;;;;;;;13.00;6.18;;;;;;;4.00;80.42;101174.97;5105621;28;20030;-67
2023/02/03 10:12:20;;;;;;;16.55;6.75;;;;;;;3.98;83.34;101168.88;5080852;28;20044;-67
2023/02/03 10:15:20;;;;;;;14.00;7.13;;;;;;;3.89;86.32;101170.16;5101352;28;20039;-67
2023/02/03 10:17:55;;;;;;;16.35;7.38;;;;;;;3.92;89.66;101164.72;5001625;28;20061;-68
2023/02/03 10:20:32;;;;;;;15.52;7.63;;;;;;;3.68;92.45;101157.03;5069713;28;20051;-67
2023/02/03 10:23:05;;;;;;;17.15;8.35;;;;;;;3.54;94.40;101151.50;5102995;28;20085;-67
2023/02/03 10:25:40;;;;;;;17.27;8.13;;;;;;;3.33;96.96;101115.38;5103790;28;20024;-67
2023/02/03 10:28:18;;;;;;;17.40;9.10;;;;;;;3.42;99.14;101133.53;5086432;28;20034;-68
2023/02/03 10:31:15;;;;;;;15.45;8.68;;;;;;;3.41;100.00;101140.59;5102025;28;20128;-68
2023/02/03 10:33:41;;;;;;;21.30;10.02;;;;;;;3.31;100.00;101122.53;5098721;28;20412;-68
2023/02/03 10:36:17;;;;;;;16.80;8.82;;;;;;;3.22;100.00;101115.00;5098527;28;20039;-68
2023/02/03 10:38:55;;;;;;;12.50;7.60;;;;;;;3.22;100.00;101128.25;5099168;28;20598;-68
2023/02/03 10:41:21;;;;;;;11.10;7.13;;;;;;;3.00;100.00;101108.94;5102249;28;20110;-68
2023/02/03 10:43:52;;;;;;;13.32;6.72;;;;;;;3.12;100.00;101116.31;5095419;28;20542;-69
2023/02/03 10:46:26;;;;;;;8.75;5.70;;;;;;;3.07;100.00;101113.03;5095688;28;20031;-68
2023/02/03 10:48:51;;;;;;;8.77;5.97;;;;;;;2.68;100.00;101046.81;5094979;28;20019;-68
2023/02/03 10:51:24;;;;;;;10.68;6.20;;;;;;;2.86;100.00;101079.53;5089633;28;20502;-68
2023/02/03 10:53:54;;;;;;;10.95;5.78;;;;;;;2.98;100.00;101086.94;5094271;28;20458;-69
2023/02/03 10:56:24;;;;;;;9.65;5.45;;;;;;;2.83;100.00;101067.28;5089940;28;20035;-69
2023/02/03 10:58:57;;;;;;;7.70;5.18;;;;;;;2.99;100.00;101089.53;5078010;28;20038;-69
2023/02/03 11:01:26;;;;;;;7.75;5.18;;;;;;;2.81;100.00;101055.06;5075787;28;20062;-67
2023/02/03 11:04:02;;;;;;;6.15;4.53;;;;;;;3.14;100.00;101080.03;5098957;28;20026;-68
2023/02/03 11:06:29;;;;;;;6.93;3.83;;;;;;;2.96;100.00;101057.88;5093892;28;20026;-68
2023/02/03 11:08:55;;;;;;;5.38;2.97;;;;;;;2.99;100.00;101041.84;5092739;28;20154;-69
2023/02/03 11:11:26;;;;;;;7.65;3.85;;;;;;;3.01;100.00;101044.41;5098035;28;20498;-69
2023/02/03 11:14:15;;;;;;;7.68;4.18;;;;;;;3.13;100.00;101075.66;5082154;28;20032;-69
2023/02/03 11:16:42;;;;;;;6.00;3.88;;;;;;;2.94;100.00;101048.28;5101236;28;20089;-69
2023/02/03 11:19:18;;;;;;;5.00;3.83;;;;;;;3.09;100.00;101063.50;5077718;28;20043;-69
2023/02/03 11:21:52;;;;;;;7.70;3.92;;;;;;;2.81;100.00;101018.84;5072955;28;20482;-69
2023/02/03 11:24:21;;;;;;;5.97;4.13;;;;;;;2.87;100.00;101033.59;5094960;28;20107;-70
2023/02/03 11:26:53;;;;;;;7.13;4.72;;;;;;;2.75;100.00;101019.13;5083777;28;20745;-69
2023/02/03 11:29:25;;;;;;;9.50;5.35;;;;;;;2.84;100.00;101039.88;5094702;28;20024;-69
2023/02/03 11:31:53;;;;;;;8.77;5.30;;;;;;;2.75;100.00;101027.06;5085667;28;20024;-69
2023/02/03 11:34:25;;;;;;;7.25;4.55;;;;;;;2.71;100.00;101008.72;5100654;28;20058;-68
2023/02/03 11:36:50;;;;;;;9.90;4.20;;;;;;;2.62;100.00;100988.81;5104107;28;20463;-69